sensor_id;sensor_type;location;lat;lon;timestamp;temperature;humidity
41142;SHT31;63666;52.284;20.890;2023-01-08T00:00:37;21.94;43.09
41142;SHT31;63666;52.284;20.890;2023-01-08T00:03:31;21.85;43.19
41142;SHT31;63666;52.284;20.890;2023-01-08T00:06:09;21.74;43.35
41142;SHT31;63666;52.284;20.890;2023-01-08T00:08:46;21.65;43.42
41142;SHT31;63666;52.284;20.890;2023-01-08T00:11:21;21.58;43.49
41142;SHT31;63666;52.284;20.890;2023-01-08T00:13:55;21.52;43.59
41142;SHT31;63666;52.284;20.890;2023-01-08T00:16:33;21.45;43.74
41142;SHT31;63666;52.284;20.890;2023-01-08T00:19:09;21.36;43.87
41142;SHT31;63666;52.284;20.890;2023-01-08T00:21:44;21.32;43.92
41142;SHT31;63666;52.284;20.890;2023-01-08T00:24:18;21.28;44.01
41142;SHT31;63666;52.284;20.890;2023-01-08T00:26:52;21.21;44.14
41142;SHT31;63666;52.284;20.890;2023-01-08T00:29:27;21.19;44.19
41142;SHT31;63666;52.284;20.890;2023-01-08T00:32:02;21.14;44.24
41142;SHT31;63666;52.284;20.890;2023-01-08T00:34:36;21.12;44.25
41142;SHT31;63666;52.284;20.890;2023-01-08T00:37:11;21.08;44.37
41142;SHT31;63666;52.284;20.890;2023-01-08T00:39:47;21.05;44.36
41142;SHT31;63666;52.284;20.890;2023-01-08T00:42:21;21.03;44.39
41142;SHT31;63666;52.284;20.890;2023-01-08T00:44:59;20.99;44.40
41142;SHT31;63666;52.284;20.890;2023-01-08T00:47:34;20.96;44.42
41142;SHT31;63666;52.284;20.890;2023-01-08T00:50:09;20.94;44.45
41142;SHT31;63666;52.284;20.890;2023-01-08T00:52:46;20.92;44.46
41142;SHT31;63666;52.284;20.890;2023-01-08T00:55:23;20.87;44.49
41142;SHT31;63666;52.284;20.890;2023-01-08T00:57:57;20.84;44.50
41142;SHT31;63666;52.284;20.890;2023-01-08T01:00:34;20.83;44.50
41142;SHT31;63666;52.284;20.890;2023-01-08T01:03:08;20.82;44.49
41142;SHT31;63666;52.284;20.890;2023-01-08T01:05:43;20.81;44.46
41142;SHT31;63666;52.284;20.890;2023-01-08T01:08:18;20.80;44.40
41142;SHT31;63666;52.284;20.890;2023-01-08T01:10:52;20.78;44.44
41142;SHT31;63666;52.284;20.890;2023-01-08T01:13:26;20.75;44.40
41142;SHT31;63666;52.284;20.890;2023-01-08T01:16:03;20.73;44.40
41142;SHT31;63666;52.284;20.890;2023-01-08T01:18:40;20.70;44.40
41142;SHT31;63666;52.284;20.890;2023-01-08T01:21:16;20.69;44.43
41142;SHT31;63666;52.284;20.890;2023-01-08T01:23:55;20.66;44.45
41142;SHT31;63666;52.284;20.890;2023-01-08T01:26:36;20.64;44.41
41142;SHT31;63666;52.284;20.890;2023-01-08T01:29:11;20.61;44.38
41142;SHT31;63666;52.284;20.890;2023-01-08T01:31:45;20.60;44.38
41142;SHT31;63666;52.284;20.890;2023-01-08T01:34:23;20.58;44.45
41142;SHT31;63666;52.284;20.890;2023-01-08T01:36:58;20.58;44.86
41142;SHT31;63666;52.284;20.890;2023-01-08T01:39:33;20.63;45.90
41142;SHT31;63666;52.284;20.890;2023-01-08T01:42:10;20.65;45.88
41142;SHT31;63666;52.284;20.890;2023-01-08T01:45:16;20.65;45.95
41142;SHT31;63666;52.284;20.890;2023-01-08T01:47:54;20.63;46.08
41142;SHT31;63666;52.284;20.890;2023-01-08T01:50:33;20.62;46.10
41142;SHT31;63666;52.284;20.890;2023-01-08T01:53:15;20.59;46.11
41142;SHT31;63666;52.284;20.890;2023-01-08T01:55:56;20.58;46.07
41142;SHT31;63666;52.284;20.890;2023-01-08T01:58:31;20.57;46.08
41142;SHT31;63666;52.284;20.890;2023-01-08T02:01:07;20.56;46.06
41142;SHT31;63666;52.284;20.890;2023-01-08T02:03:42;20.54;46.03
41142;SHT31;63666;52.284;20.890;2023-01-08T02:06:22;20.53;46.02
41142;SHT31;63666;52.284;20.890;2023-01-08T02:09:08;20.54;45.93
41142;SHT31;63666;52.284;20.890;2023-01-08T02:11:53;20.54;45.89
41142;SHT31;63666;52.284;20.890;2023-01-08T02:14:56;20.51;45.91
41142;SHT31;63666;52.284;20.890;2023-01-08T02:17:43;20.50;45.86
41142;SHT31;63666;52.284;20.890;2023-01-08T02:20:23;20.48;45.90
41142;SHT31;63666;52.284;20.890;2023-01-08T02:23:07;20.44;45.87
41142;SHT31;63666;52.284;20.890;2023-01-08T02:26:03;20.44;45.84
41142;SHT31;63666;52.284;20.890;2023-01-08T02:28:53;20.45;45.77
41142;SHT31;63666;52.284;20.890;2023-01-08T02:31:34;20.44;45.72
41142;SHT31;63666;52.284;20.890;2023-01-08T02:34:13;20.42;45.73
41142;SHT31;63666;52.284;20.890;2023-01-08T02:36:48;20.42;45.69
41142;SHT31;63666;52.284;20.890;2023-01-08T02:39:28;20.40;45.67
41142;SHT31;63666;52.284;20.890;2023-01-08T02:42:20;20.40;45.64
41142;SHT31;63666;52.284;20.890;2023-01-08T02:45:04;20.38;45.64
41142;SHT31;63666;52.284;20.890;2023-01-08T02:47:50;20.38;45.60
41142;SHT31;63666;52.284;20.890;2023-01-08T02:50:34;20.35;45.58
41142;SHT31;63666;52.284;20.890;2023-01-08T02:53:10;20.33;45.61
41142;SHT31;63666;52.284;20.890;2023-01-08T02:55:50;20.33;45.56
41142;SHT31;63666;52.284;20.890;2023-01-08T02:58:28;20.30;45.58
41142;SHT31;63666;52.284;20.890;2023-01-08T03:01:05;20.28;45.57
41142;SHT31;63666;52.284;20.890;2023-01-08T03:03:43;20.28;45.52
41142;SHT31;63666;52.284;20.890;2023-01-08T03:06:24;20.27;45.52
41142;SHT31;63666;52.284;20.890;2023-01-08T03:08:59;20.26;45.54
41142;SHT31;63666;52.284;20.890;2023-01-08T03:11:35;20.27;45.48
41142;SHT31;63666;52.284;20.890;2023-01-08T03:14:16;20.25;45.50
41142;SHT31;63666;52.284;20.890;2023-01-08T03:16:56;20.23;45.48
41142;SHT31;63666;52.284;20.890;2023-01-08T03:19:35;20.23;45.49
41142;SHT31;63666;52.284;20.890;2023-01-08T03:22:18;20.22;45.48
41142;SHT31;63666;52.284;20.890;2023-01-08T03:24:55;20.21;45.52
41142;SHT31;63666;52.284;20.890;2023-01-08T03:27:33;20.18;45.57
41142;SHT31;63666;52.284;20.890;2023-01-08T03:30:14;20.20;45.56
41142;SHT31;63666;52.284;20.890;2023-01-08T03:32:50;20.18;45.62
41142;SHT31;63666;52.284;20.890;2023-01-08T03:35:29;20.17;45.69
41142;SHT31;63666;52.284;20.890;2023-01-08T03:38:12;20.14;45.70
41142;SHT31;63666;52.284;20.890;2023-01-08T03:40:53;20.14;45.69
41142;SHT31;63666;52.284;20.890;2023-01-08T03:43:33;20.12;45.70
41142;SHT31;63666;52.284;20.890;2023-01-08T03:46:10;20.11;45.71
41142;SHT31;63666;52.284;20.890;2023-01-08T03:48:50;20.09;45.73
41142;SHT31;63666;52.284;20.890;2023-01-08T03:51:27;20.08;45.72
41142;SHT31;63666;52.284;20.890;2023-01-08T03:54:12;20.07;45.71
41142;SHT31;63666;52.284;20.890;2023-01-08T03:56:50;20.04;45.76
41142;SHT31;63666;52.284;20.890;2023-01-08T03:59:25;20.07;45.72
41142;SHT31;63666;52.284;20.890;2023-01-08T04:02:00;20.03;45.76
41142;SHT31;63666;52.284;20.890;2023-01-08T04:04:37;20.03;45.76
41142;SHT31;63666;52.284;20.890;2023-01-08T04:07:13;20.03;45.72
41142;SHT31;63666;52.284;20.890;2023-01-08T04:09:47;20.00;45.71
41142;SHT31;63666;52.284;20.890;2023-01-08T04:12:24;19.99;45.73
41142;SHT31;63666;52.284;20.890;2023-01-08T04:14:58;19.97;45.71
41142;SHT31;63666;52.284;20.890;2023-01-08T04:17:33;19.98;45.68
41142;SHT31;63666;52.284;20.890;2023-01-08T04:20:07;19.98;45.65
41142;SHT31;63666;52.284;20.890;2023-01-08T04:22:42;19.96;45.69
41142;SHT31;63666;52.284;20.890;2023-01-08T04:25:17;19.95;45.66
41142;SHT31;63666;52.284;20.890;2023-01-08T04:27:51;19.95;45.63
41142;SHT31;63666;52.284;20.890;2023-01-08T04:30:26;19.94;45.69
41142;SHT31;63666;52.284;20.890;2023-01-08T04:33:00;19.93;45.69
41142;SHT31;63666;52.284;20.890;2023-01-08T04:35:35;19.92;45.69
41142;SHT31;63666;52.284;20.890;2023-01-08T04:38:11;19.90;45.71
41142;SHT31;63666;52.284;20.890;2023-01-08T04:40:46;19.91;45.67
41142;SHT31;63666;52.284;20.890;2023-01-08T04:43:20;19.91;45.67
41142;SHT31;63666;52.284;20.890;2023-01-08T04:45:57;19.88;45.73
41142;SHT31;63666;52.284;20.890;2023-01-08T04:48:33;19.85;45.73
41142;SHT31;63666;52.284;20.890;2023-01-08T04:51:08;19.85;45.64
41142;SHT31;63666;52.284;20.890;2023-01-08T04:53:42;19.87;45.60
41142;SHT31;63666;52.284;20.890;2023-01-08T04:56:17;19.83;45.69
41142;SHT31;63666;52.284;20.890;2023-01-08T04:58:51;19.85;45.60
41142;SHT31;63666;52.284;20.890;2023-01-08T05:01:26;19.83;45.71
41142;SHT31;63666;52.284;20.890;2023-01-08T05:04:03;19.83;45.65
41142;SHT31;63666;52.284;20.890;2023-01-08T05:06:40;19.79;46.00
41142;SHT31;63666;52.284;20.890;2023-01-08T05:09:14;19.76;46.21
41142;SHT31;63666;52.284;20.890;2023-01-08T05:11:48;19.78;46.27
41142;SHT31;63666;52.284;20.890;2023-01-08T05:14:23;19.79;46.31
41142;SHT31;63666;52.284;20.890;2023-01-08T05:16:58;19.80;46.29
41142;SHT31;63666;52.284;20.890;2023-01-08T05:19:32;19.77;46.35
41142;SHT31;63666;52.284;20.890;2023-01-08T05:22:07;19.82;46.32
41142;SHT31;63666;52.284;20.890;2023-01-08T05:24:41;19.85;46.36
41142;SHT31;63666;52.284;20.890;2023-01-08T05:27:15;19.86;46.34
41142;SHT31;63666;52.284;20.890;2023-01-08T05:29:50;19.93;46.18
41142;SHT31;63666;52.284;20.890;2023-01-08T05:32:24;20.00;46.03
41142;SHT31;63666;52.284;20.890;2023-01-08T05:34:58;20.05;45.88
41142;SHT31;63666;52.284;20.890;2023-01-08T05:37:34;20.09;45.81
41142;SHT31;63666;52.284;20.890;2023-01-08T05:40:09;20.12;45.76
41142;SHT31;63666;52.284;20.890;2023-01-08T05:42:44;20.16;45.69
41142;SHT31;63666;52.284;20.890;2023-01-08T05:45:18;20.23;45.60
41142;SHT31;63666;52.284;20.890;2023-01-08T05:47:52;20.28;45.52
41142;SHT31;63666;52.284;20.890;2023-01-08T05:50:27;20.30;45.57
41142;SHT31;63666;52.284;20.890;2023-01-08T05:53:04;20.34;45.52
41142;SHT31;63666;52.284;20.890;2023-01-08T05:55:38;20.36;45.45
41142;SHT31;63666;52.284;20.890;2023-01-08T05:58:12;20.40;45.42
41142;SHT31;63666;52.284;20.890;2023-01-08T06:00:48;20.42;45.40
41142;SHT31;63666;52.284;20.890;2023-01-08T06:03:22;20.44;45.36
41142;SHT31;63666;52.284;20.890;2023-01-08T06:05:58;20.46;45.33
41142;SHT31;63666;52.284;20.890;2023-01-08T06:08:34;20.49;45.26
41142;SHT31;63666;52.284;20.890;2023-01-08T06:11:09;20.56;45.20
41142;SHT31;63666;52.284;20.890;2023-01-08T06:13:44;20.58;45.16
41142;SHT31;63666;52.284;20.890;2023-01-08T06:16:19;20.60;45.19
41142;SHT31;63666;52.284;20.890;2023-01-08T06:18:53;20.67;45.09
41142;SHT31;63666;52.284;20.890;2023-01-08T06:21:28;20.70;45.04
41142;SHT31;63666;52.284;20.890;2023-01-08T06:24:03;20.72;45.00
41142;SHT31;63666;52.284;20.890;2023-01-08T06:26:38;20.71;44.89
41142;SHT31;63666;52.284;20.890;2023-01-08T06:29:12;20.74;44.85
41142;SHT31;63666;52.284;20.890;2023-01-08T06:31:50;20.74;44.85
41142;SHT31;63666;52.284;20.890;2023-01-08T06:34:25;20.78;44.74
41142;SHT31;63666;52.284;20.890;2023-01-08T06:36:59;20.82;44.70
41142;SHT31;63666;52.284;20.890;2023-01-08T06:39:33;20.85;44.63
41142;SHT31;63666;52.284;20.890;2023-01-08T06:42:08;20.87;44.58
41142;SHT31;63666;52.284;20.890;2023-01-08T06:44:42;20.88;44.58
41142;SHT31;63666;52.284;20.890;2023-01-08T06:47:16;20.87;44.54
41142;SHT31;63666;52.284;20.890;2023-01-08T06:49:53;20.91;44.47
41142;SHT31;63666;52.284;20.890;2023-01-08T06:52:30;20.92;44.46
41142;SHT31;63666;52.284;20.890;2023-01-08T06:55:05;20.92;44.44
41142;SHT31;63666;52.284;20.890;2023-01-08T06:57:40;20.93;44.34
41142;SHT31;63666;52.284;20.890;2023-01-08T07:00:15;20.93;44.28
41142;SHT31;63666;52.284;20.890;2023-01-08T07:02:52;20.97;44.21
41142;SHT31;63666;52.284;20.890;2023-01-08T07:05:27;20.99;44.18
41142;SHT31;63666;52.284;20.890;2023-01-08T07:08:02;21.00;44.10
41142;SHT31;63666;52.284;20.890;2023-01-08T07:10:39;21.00;44.03
41142;SHT31;63666;52.284;20.890;2023-01-08T07:13:14;20.98;44.05
41142;SHT31;63666;52.284;20.890;2023-01-08T07:15:49;21.01;43.97
41142;SHT31;63666;52.284;20.890;2023-01-08T07:18:24;21.03;43.97
41142;SHT31;63666;52.284;20.890;2023-01-08T07:20:59;21.05;43.89
41142;SHT31;63666;52.284;20.890;2023-01-08T07:23:35;21.06;43.88
41142;SHT31;63666;52.284;20.890;2023-01-08T07:26:10;21.06;43.81
41142;SHT31;63666;52.284;20.890;2023-01-08T07:28:44;21.08;43.76
41142;SHT31;63666;52.284;20.890;2023-01-08T07:31:19;21.09;43.78
41142;SHT31;63666;52.284;20.890;2023-01-08T07:33:54;21.10;43.73
41142;SHT31;63666;52.284;20.890;2023-01-08T07:36:28;21.09;43.71
41142;SHT31;63666;52.284;20.890;2023-01-08T07:39:05;21.11;43.61
41142;SHT31;63666;52.284;20.890;2023-01-08T07:41:39;21.13;43.54
41142;SHT31;63666;52.284;20.890;2023-01-08T07:44:14;21.16;43.46
41142;SHT31;63666;52.284;20.890;2023-01-08T07:46:48;21.16;43.46
41142;SHT31;63666;52.284;20.890;2023-01-08T07:49:22;21.17;43.43
41142;SHT31;63666;52.284;20.890;2023-01-08T07:51:57;21.19;43.35
41142;SHT31;63666;52.284;20.890;2023-01-08T07:54:31;21.21;43.26
41142;SHT31;63666;52.284;20.890;2023-01-08T07:57:05;21.19;43.30
41142;SHT31;63666;52.284;20.890;2023-01-08T07:59:39;21.21;43.21
41142;SHT31;63666;52.284;20.890;2023-01-08T08:02:14;21.20;43.23
41142;SHT31;63666;52.284;20.890;2023-01-08T08:04:49;21.23;43.19
41142;SHT31;63666;52.284;20.890;2023-01-08T08:07:23;21.24;43.12
41142;SHT31;63666;52.284;20.890;2023-01-08T08:10:00;21.23;43.16
41142;SHT31;63666;52.284;20.890;2023-01-08T08:12:35;21.26;43.12
41142;SHT31;63666;52.284;20.890;2023-01-08T08:15:10;21.25;43.08
41142;SHT31;63666;52.284;20.890;2023-01-08T08:17:46;21.24;43.05
41142;SHT31;63666;52.284;20.890;2023-01-08T08:20:21;21.28;43.02
41142;SHT31;63666;52.284;20.890;2023-01-08T08:23:00;21.30;42.99
41142;SHT31;63666;52.284;20.890;2023-01-08T08:25:36;21.31;42.97
41142;SHT31;63666;52.284;20.890;2023-01-08T08:28:12;21.32;42.93
41142;SHT31;63666;52.284;20.890;2023-01-08T08:30:49;21.33;42.86
41142;SHT31;63666;52.284;20.890;2023-01-08T08:33:24;21.33;42.85
41142;SHT31;63666;52.284;20.890;2023-01-08T08:35:59;21.32;42.88
41142;SHT31;63666;52.284;20.890;2023-01-08T08:38:35;21.32;42.84
41142;SHT31;63666;52.284;20.890;2023-01-08T08:41:09;21.31;42.87
41142;SHT31;63666;52.284;20.890;2023-01-08T08:43:44;21.30;42.87
41142;SHT31;63666;52.284;20.890;2023-01-08T08:46:19;21.28;42.87
41142;SHT31;63666;52.284;20.890;2023-01-08T08:48:54;21.24;42.89
41142;SHT31;63666;52.284;20.890;2023-01-08T08:51:28;21.20;42.88
41142;SHT31;63666;52.284;20.890;2023-01-08T08:54:05;21.17;42.92
41142;SHT31;63666;52.284;20.890;2023-01-08T08:56:41;21.17;42.91
41142;SHT31;63666;52.284;20.890;2023-01-08T08:59:19;21.14;42.92
41142;SHT31;63666;52.284;20.890;2023-01-08T09:01:53;21.11;42.99
41142;SHT31;63666;52.284;20.890;2023-01-08T09:04:29;21.10;42.95
41142;SHT31;63666;52.284;20.890;2023-01-08T09:07:04;21.09;42.94
41142;SHT31;63666;52.284;20.890;2023-01-08T09:09:38;21.02;42.99
41142;SHT31;63666;52.284;20.890;2023-01-08T09:12:15;20.99;43.09
41142;SHT31;63666;52.284;20.890;2023-01-08T09:14:50;20.98;43.08
41142;SHT31;63666;52.284;20.890;2023-01-08T09:17:25;20.93;43.12
41142;SHT31;63666;52.284;20.890;2023-01-08T09:20:00;20.93;43.20
41142;SHT31;63666;52.284;20.890;2023-01-08T09:22:38;20.92;43.22
41142;SHT31;63666;52.284;20.890;2023-01-08T09:25:15;20.89;43.25
41142;SHT31;63666;52.284;20.890;2023-01-08T09:27:56;20.85;43.21
41142;SHT31;63666;52.284;20.890;2023-01-08T09:30:32;20.85;43.17
41142;SHT31;63666;52.284;20.890;2023-01-08T09:33:07;20.89;43.06
41142;SHT31;63666;52.284;20.890;2023-01-08T09:35:43;20.92;42.92
41142;SHT31;63666;52.284;20.890;2023-01-08T09:38:18;20.94;42.82
41142;SHT31;63666;52.284;20.890;2023-01-08T09:40:54;20.94;42.76
41142;SHT31;63666;52.284;20.890;2023-01-08T09:43:33;20.97;42.71
41142;SHT31;63666;52.284;20.890;2023-01-08T09:46:09;21.01;42.59
41142;SHT31;63666;52.284;20.890;2023-01-08T09:48:47;21.04;42.55
41142;SHT31;63666;52.284;20.890;2023-01-08T09:51:29;21.08;42.50
41142;SHT31;63666;52.284;20.890;2023-01-08T09:54:05;21.11;42.40
41142;SHT31;63666;52.284;20.890;2023-01-08T09:56:45;21.14;42.29
41142;SHT31;63666;52.284;20.890;2023-01-08T09:59:22;21.14;42.46
41142;SHT31;63666;52.284;20.890;2023-01-08T10:01:57;21.21;42.07
41142;SHT31;63666;52.284;20.890;2023-01-08T10:04:32;21.20;42.50
41142;SHT31;63666;52.284;20.890;2023-01-08T10:07:10;21.31;44.04
41142;SHT31;63666;52.284;20.890;2023-01-08T10:09:50;21.41;44.35
41142;SHT31;63666;52.284;20.890;2023-01-08T10:12:25;21.44;44.60
41142;SHT31;63666;52.284;20.890;2023-01-08T10:15:02;21.47;43.93
41142;SHT31;63666;52.284;20.890;2023-01-08T10:17:41;21.49;43.93
41142;SHT31;63666;52.284;20.890;2023-01-08T10:20:23;21.54;43.93
41142;SHT31;63666;52.284;20.890;2023-01-08T10:23:01;21.59;44.01
41142;SHT31;63666;52.284;20.890;2023-01-08T10:25:54;21.63;43.71
41142;SHT31;63666;52.284;20.890;2023-01-08T10:28:32;21.67;43.56
41142;SHT31;63666;52.284;20.890;2023-01-08T10:31:10;21.67;43.52
41142;SHT31;63666;52.284;20.890;2023-01-08T10:33:47;21.72;43.44
41142;SHT31;63666;52.284;20.890;2023-01-08T10:36:23;21.73;43.30
41142;SHT31;63666;52.284;20.890;2023-01-08T10:38:58;21.74;43.36
41142;SHT31;63666;52.284;20.890;2023-01-08T10:41:37;21.77;43.28
41142;SHT31;63666;52.284;20.890;2023-01-08T10:44:14;21.80;43.09
41142;SHT31;63666;52.284;20.890;2023-01-08T10:46:49;21.81;43.23
41142;SHT31;63666;52.284;20.890;2023-01-08T10:49:30;21.88;43.05
41142;SHT31;63666;52.284;20.890;2023-01-08T10:52:20;21.85;42.93
41142;SHT31;63666;52.284;20.890;2023-01-08T10:55:11;21.87;42.80
41142;SHT31;63666;52.284;20.890;2023-01-08T10:57:55;21.92;42.64
41142;SHT31;63666;52.284;20.890;2023-01-08T11:00:31;21.95;42.45
41142;SHT31;63666;52.284;20.890;2023-01-08T11:03:06;21.94;42.44
41142;SHT31;63666;52.284;20.890;2023-01-08T11:05:50;21.93;42.45
41142;SHT31;63666;52.284;20.890;2023-01-08T11:08:24;21.96;42.29
41142;SHT31;63666;52.284;20.890;2023-01-08T11:10:59;21.95;42.69
41142;SHT31;63666;52.284;20.890;2023-01-08T11:13:33;21.94;42.54
41142;SHT31;63666;52.284;20.890;2023-01-08T11:16:08;21.94;42.35
41142;SHT31;63666;52.284;20.890;2023-01-08T11:18:43;21.94;42.54
41142;SHT31;63666;52.284;20.890;2023-01-08T11:21:21;21.93;42.54
41142;SHT31;63666;52.284;20.890;2023-01-08T11:24:03;21.92;42.51
41142;SHT31;63666;52.284;20.890;2023-01-08T11:26:49;21.90;42.60
41142;SHT31;63666;52.284;20.890;2023-01-08T11:29:30;21.87;42.65
41142;SHT31;63666;52.284;20.890;2023-01-08T11:35:16;21.85;42.72
41142;SHT31;63666;52.284;20.890;2023-01-08T11:37:54;21.85;42.77
41142;SHT31;63666;52.284;20.890;2023-01-08T11:40:32;21.85;42.71
41142;SHT31;63666;52.284;20.890;2023-01-08T11:43:14;21.82;42.70
41142;SHT31;63666;52.284;20.890;2023-01-08T11:46:04;21.76;42.83
41142;SHT31;63666;52.284;20.890;2023-01-08T11:49:03;21.77;42.77
41142;SHT31;63666;52.284;20.890;2023-01-08T11:52:07;21.75;42.77
41142;SHT31;63666;52.284;20.890;2023-01-08T11:55:01;21.74;42.52
41142;SHT31;63666;52.284;20.890;2023-01-08T11:58:09;21.67;42.64
41142;SHT31;63666;52.284;20.890;2023-01-08T12:00:57;21.65;42.72
41142;SHT31;63666;52.284;20.890;2023-01-08T12:03:48;21.68;42.63
41142;SHT31;63666;52.284;20.890;2023-01-08T12:06:37;21.64;42.58
41142;SHT31;63666;52.284;20.890;2023-01-08T12:09:25;21.60;42.79
41142;SHT31;63666;52.284;20.890;2023-01-08T12:12:15;21.59;42.87
41142;SHT31;63666;52.284;20.890;2023-01-08T12:15:06;21.60;42.76
41142;SHT31;63666;52.284;20.890;2023-01-08T12:17:56;21.54;42.86
41142;SHT31;63666;52.284;20.890;2023-01-08T12:20:45;21.55;42.76
41142;SHT31;63666;52.284;20.890;2023-01-08T12:23:29;21.57;42.75
41142;SHT31;63666;52.284;20.890;2023-01-08T12:26:30;21.51;42.69
41142;SHT31;63666;52.284;20.890;2023-01-08T12:29:34;21.53;42.64
41142;SHT31;63666;52.284;20.890;2023-01-08T12:32:29;21.54;42.76
41142;SHT31;63666;52.284;20.890;2023-01-08T12:35:09;21.49;42.81
41142;SHT31;63666;52.284;20.890;2023-01-08T12:37:49;21.48;42.90
41142;SHT31;63666;52.284;20.890;2023-01-08T12:40:31;21.46;42.98
41142;SHT31;63666;52.284;20.890;2023-01-08T12:43:10;21.41;43.05
41142;SHT31;63666;52.284;20.890;2023-01-08T12:45:49;21.35;43.01
41142;SHT31;63666;52.284;20.890;2023-01-08T12:48:27;21.26;43.10
41142;SHT31;63666;52.284;20.890;2023-01-08T12:51:05;21.18;43.13
41142;SHT31;63666;52.284;20.890;2023-01-08T12:53:51;21.11;43.24
41142;SHT31;63666;52.284;20.890;2023-01-08T12:56:39;21.09;43.27
41142;SHT31;63666;52.284;20.890;2023-01-08T12:59:22;21.10;43.25
41142;SHT31;63666;52.284;20.890;2023-01-08T13:02:10;21.11;43.13
41142;SHT31;63666;52.284;20.890;2023-01-08T13:04:57;21.16;43.14
41142;SHT31;63666;52.284;20.890;2023-01-08T13:07:43;21.32;44.78
41142;SHT31;63666;52.284;20.890;2023-01-08T13:10:21;21.53;45.25
41142;SHT31;63666;52.284;20.890;2023-01-08T13:13:06;21.60;44.67
41142;SHT31;63666;52.284;20.890;2023-01-08T13:16:15;21.65;44.83
41142;SHT31;63666;52.284;20.890;2023-01-08T13:18:54;21.71;44.50
41142;SHT31;63666;52.284;20.890;2023-01-08T13:21:31;21.77;44.38
41142;SHT31;63666;52.284;20.890;2023-01-08T13:24:30;21.83;43.99
41142;SHT31;63666;52.284;20.890;2023-01-08T13:27:20;21.87;43.30
41142;SHT31;63666;52.284;20.890;2023-01-08T13:30:01;21.91;42.82
41142;SHT31;63666;52.284;20.890;2023-01-08T13:33:36;21.97;43.01
41142;SHT31;63666;52.284;20.890;2023-01-08T13:36:16;22.01;42.96
41142;SHT31;63666;52.284;20.890;2023-01-08T13:39:00;21.98;43.06
41142;SHT31;63666;52.284;20.890;2023-01-08T13:41:57;21.98;42.95
41142;SHT31;63666;52.284;20.890;2023-01-08T13:44:37;22.00;42.94
41142;SHT31;63666;52.284;20.890;2023-01-08T13:47:19;21.99;42.74
41142;SHT31;63666;52.284;20.890;2023-01-08T13:50:04;21.92;42.25
41142;SHT31;63666;52.284;20.890;2023-01-08T13:52:49;21.92;42.20
41142;SHT31;63666;52.284;20.890;2023-01-08T13:55:31;21.88;42.18
41142;SHT31;63666;52.284;20.890;2023-01-08T13:58:11;21.84;42.02
41142;SHT31;63666;52.284;20.890;2023-01-08T14:00:51;21.84;42.09
41142;SHT31;63666;52.284;20.890;2023-01-08T14:03:27;21.83;41.99
41142;SHT31;63666;52.284;20.890;2023-01-08T14:06:16;21.73;42.22
41142;SHT31;63666;52.284;20.890;2023-01-08T14:08:53;21.58;42.40
41142;SHT31;63666;52.284;20.890;2023-01-08T14:11:29;21.45;42.52
41142;SHT31;63666;52.284;20.890;2023-01-08T14:14:15;21.39;42.78
41142;SHT31;63666;52.284;20.890;2023-01-08T14:16:52;21.37;42.80
41142;SHT31;63666;52.284;20.890;2023-01-08T14:19:27;21.33;42.96
41142;SHT31;63666;52.284;20.890;2023-01-08T14:22:05;21.27;43.06
41142;SHT31;63666;52.284;20.890;2023-01-08T14:24:52;21.22;43.14
41142;SHT31;63666;52.284;20.890;2023-01-08T14:27:30;21.19;43.33
41142;SHT31;63666;52.284;20.890;2023-01-08T14:30:14;21.15;43.68
41142;SHT31;63666;52.284;20.890;2023-01-08T14:32:51;21.17;43.95
41142;SHT31;63666;52.284;20.890;2023-01-08T14:35:29;21.17;43.76
41142;SHT31;63666;52.284;20.890;2023-01-08T14:38:10;21.13;43.83
41142;SHT31;63666;52.284;20.890;2023-01-08T14:40:46;21.06;43.97
41142;SHT31;63666;52.284;20.890;2023-01-08T14:43:32;21.11;43.95
41142;SHT31;63666;52.284;20.890;2023-01-08T14:46:14;21.04;44.21
41142;SHT31;63666;52.284;20.890;2023-01-08T14:48:55;20.97;44.42
41142;SHT31;63666;52.284;20.890;2023-01-08T14:51:30;20.95;44.54
41142;SHT31;63666;52.284;20.890;2023-01-08T14:54:06;20.94;44.71
41142;SHT31;63666;52.284;20.890;2023-01-08T14:56:52;20.95;44.83
41142;SHT31;63666;52.284;20.890;2023-01-08T14:59:31;20.96;44.91
41142;SHT31;63666;52.284;20.890;2023-01-08T15:02:20;20.93;45.07
41142;SHT31;63666;52.284;20.890;2023-01-08T15:05:12;20.90;45.18
41142;SHT31;63666;52.284;20.890;2023-01-08T15:08:02;20.89;45.31
41142;SHT31;63666;52.284;20.890;2023-01-08T15:10:59;20.88;45.39
41142;SHT31;63666;52.284;20.890;2023-01-08T15:13:35;20.86;45.55
41142;SHT31;63666;52.284;20.890;2023-01-08T15:16:10;20.86;45.50
41142;SHT31;63666;52.284;20.890;2023-01-08T15:18:50;20.82;45.57
41142;SHT31;63666;52.284;20.890;2023-01-08T15:21:34;20.82;45.57
41142;SHT31;63666;52.284;20.890;2023-01-08T15:24:18;20.80;45.73
41142;SHT31;63666;52.284;20.890;2023-01-08T15:26:57;20.76;45.85
41142;SHT31;63666;52.284;20.890;2023-01-08T15:29:45;20.71;45.90
41142;SHT31;63666;52.284;20.890;2023-01-08T15:32:22;20.73;45.68
41142;SHT31;63666;52.284;20.890;2023-01-08T15:35:00;20.73;45.74
41142;SHT31;63666;52.284;20.890;2023-01-08T15:37:44;20.78;45.75
41142;SHT31;63666;52.284;20.890;2023-01-08T15:40:19;20.83;45.67
41142;SHT31;63666;52.284;20.890;2023-01-08T15:42:53;20.91;45.55
41142;SHT31;63666;52.284;20.890;2023-01-08T15:45:40;20.98;45.35
41142;SHT31;63666;52.284;20.890;2023-01-08T15:48:16;21.05;45.31
41142;SHT31;63666;52.284;20.890;2023-01-08T15:50:51;21.14;45.27
41142;SHT31;63666;52.284;20.890;2023-01-08T15:53:26;21.18;45.11
41142;SHT31;63666;52.284;20.890;2023-01-08T15:56:01;21.21;45.15
41142;SHT31;63666;52.284;20.890;2023-01-08T15:58:35;21.24;45.14
41142;SHT31;63666;52.284;20.890;2023-01-08T16:01:10;21.24;45.23
41142;SHT31;63666;52.284;20.890;2023-01-08T16:03:44;21.30;45.21
41142;SHT31;63666;52.284;20.890;2023-01-08T16:06:19;21.32;45.18
41142;SHT31;63666;52.284;20.890;2023-01-08T16:08:56;21.32;45.19
41142;SHT31;63666;52.284;20.890;2023-01-08T16:11:31;21.30;45.21
41142;SHT31;63666;52.284;20.890;2023-01-08T16:14:06;21.30;45.67
41142;SHT31;63666;52.284;20.890;2023-01-08T16:16:41;21.44;47.07
41142;SHT31;63666;52.284;20.890;2023-01-08T16:19:16;21.45;46.53
41142;SHT31;63666;52.284;20.890;2023-01-08T16:21:53;21.42;45.63
41142;SHT31;63666;52.284;20.890;2023-01-08T16:24:28;21.37;45.47
41142;SHT31;63666;52.284;20.890;2023-01-08T16:27:03;21.26;45.10
41142;SHT31;63666;52.284;20.890;2023-01-08T16:29:38;21.20;45.12